Time;durP1;ratioP1;P1;durP2;ratioP2;P2;SDS_P1;SDS_P2;PMS_P1;PMS_P2;Temp;Humidity;BMP_temperature;BMP_pressure;BME280_temperature;BME280_humidity;BME280_pressure;Samples;Min_cycle;Max_cycle;Signal;HPM_P1;HPM_P2
2022/10/27 00:00:48;;;;;;;91.07;81.25;;;23.20;60.90;;;;;;4996727;55;21074;-42
2022/10/27 00:05:49;;;;;;;91.37;81.05;;;23.10;60.90;;;;;;4817166;55;21069;-44
2022/10/27 00:11:01;;;;;;;85.22;75.87;;;23.10;60.80;;;;;;4906980;55;21010;-44
2022/10/27 00:16:05;;;;;;;89.15;79.43;;;23.00;60.80;;;;;;4819761;55;21006;-43
2022/10/27 00:21:09;;;;;;;88.15;78.50;;;23.00;60.80;;;;;;4984342;55;21062;-38
2022/10/27 00:26:12;;;;;;;84.85;75.55;;;23.00;60.70;;;;;;4869825;55;21092;-43
2022/10/27 00:31:20;;;;;;;86.10;76.62;;;23.00;60.70;;;;;;4775135;55;21006;-44
2022/10/27 00:36:23;;;;;;;80.60;71.80;;;23.00;60.70;;;;;;5002721;55;21010;-44
2022/10/27 00:41:39;;;;;;;80.30;71.57;;;23.00;60.70;;;;;;4842475;55;21021;-40
2022/10/27 00:46:43;;;;;;;82.43;73.43;;;23.00;60.60;;;;;;4849707;55;21074;-43
2022/10/27 00:51:48;;;;;;;80.68;71.85;;;23.00;60.60;;;;;;4874901;55;21010;-42
2022/10/27 00:56:51;;;;;;;79.65;70.32;;;23.00;60.50;;;;;;4808234;55;21055;-48
2022/10/27 01:01:54;;;;;;;77.72;69.22;;;23.00;60.50;;;;;;4763534;55;21022;-38
2022/10/27 01:06:55;;;;;;;76.30;67.72;;;23.00;60.50;;;;;;5084036;55;21114;-44
2022/10/27 01:11:55;;;;;;;73.53;65.53;;;23.00;60.50;;;;;;5046241;55;21010;-46
2022/10/27 01:20:28;;;;;;;73.03;65.03;;;23.00;60.40;;;;;;4823446;55;21082;-33
2022/10/27 01:27:21;;;;;;;73.12;64.50;;;23.00;60.40;;;;;;4784449;55;21038;-46
2022/10/27 01:33:48;;;;;;;72.62;64.72;;;23.00;60.50;;;;;;4745636;59;21090;-45
2022/10/27 01:39:34;;;;;;;68.80;61.17;;;23.00;60.30;;;;;;4800749;55;21058;-42
2022/10/27 01:44:40;;;;;;;64.33;57.13;;;23.00;60.20;;;;;;4744892;59;21551;-43
2022/10/27 01:49:42;;;;;;;67.85;59.03;;;23.00;60.20;;;;;;4810505;55;21010;-43
2022/10/27 01:54:43;;;;;;;65.60;58.35;;;23.00;60.20;;;;;;4745538;59;21495;-42
2022/10/27 02:00:02;;;;;;;63.05;56.15;;;23.00;60.20;;;;;;5199422;55;22257;-49
2022/10/27 02:05:19;;;;;;;64.07;57.17;;;23.00;60.20;;;;;;4814241;55;21077;-42
2022/10/27 02:10:31;;;;;;;62.58;55.38;;;23.00;60.00;;;;;;4786435;55;21045;-42
2022/10/27 02:15:39;;;;;;;63.35;56.33;;;23.00;60.60;;;;;;4829118;55;21042;-49
2022/10/27 02:20:44;;;;;;;60.60;54.00;;;23.00;60.10;;;;;;4745331;59;21074;-48
2022/10/27 02:25:57;;;;;;;59.15;52.80;;;23.00;60.00;;;;;;4768282;55;21094;-35
2022/10/27 02:30:59;;;;;;;60.12;52.97;;;23.00;60.00;;;;;;4867297;55;20999;-46
2022/10/27 02:36:00;;;;;;;56.80;50.65;;;23.00;60.00;;;;;;5142640;55;20999;-44
2022/10/27 02:41:01;;;;;;;58.28;51.97;;;23.00;59.90;;;;;;4753346;55;21022;-44
2022/10/27 02:46:02;;;;;;;56.13;50.03;;;23.00;59.90;;;;;;4745586;59;21006;-43
2022/10/27 02:51:03;;;;;;;56.80;49.78;;;23.00;59.90;;;;;;4791843;55;21543;-48
2022/10/27 02:56:04;;;;;;;56.00;49.88;;;23.00;59.90;;;;;;4906185;55;21563;-41
2022/10/27 03:01:05;;;;;;;54.20;48.45;;;23.00;59.80;;;;;;4744709;59;21073;-49
2022/10/27 03:06:06;;;;;;;52.53;46.90;;;22.90;59.70;;;;;;4913478;55;21045;-36
2022/10/27 03:11:07;;;;;;;51.50;45.90;;;23.00;59.80;;;;;;4955251;55;21531;-40
2022/10/27 03:16:08;;;;;;;50.90;45.38;;;22.90;59.70;;;;;;5230702;55;21006;-38
2022/10/27 03:21:08;;;;;;;50.75;45.33;;;23.00;59.70;;;;;;4744502;59;21013;-42
2022/10/27 03:26:09;;;;;;;50.25;43.75;;;23.00;59.70;;;;;;4854849;55;21579;-39
2022/10/27 03:31:10;;;;;;;48.20;42.90;;;23.00;59.60;;;;;;4986255;55;21546;-43
2022/10/27 03:36:12;;;;;;;47.62;42.45;;;22.90;59.60;;;;;;4745401;59;21095;-42
2022/10/27 03:41:13;;;;;;;46.63;41.20;;;23.00;59.60;;;;;;4874462;55;21752;-44
2022/10/27 03:46:14;;;;;;;47.03;41.95;;;22.90;59.50;;;;;;4745325;55;21061;-46
2022/10/27 03:51:15;;;;;;;47.08;41.40;;;23.00;59.50;;;;;;4799164;55;21025;-47
2022/10/27 03:56:16;;;;;;;43.83;39.10;;;22.90;59.50;;;;;;4952268;55;21006;-46
2022/10/27 04:01:16;;;;;;;45.05;40.15;;;22.90;59.40;;;;;;4869685;55;21021;-39
2022/10/27 04:06:17;;;;;;;45.42;39.83;;;22.90;59.30;;;;;;4868393;55;21066;-43
2022/10/27 04:11:18;;;;;;;44.08;39.35;;;22.90;59.30;;;;;;4745431;55;21499;-48
2022/10/27 04:16:19;;;;;;;45.88;37.30;;;22.90;59.40;;;;;;4745312;59;21472;-39
2022/10/27 04:21:20;;;;;;;43.13;38.53;;;22.90;59.30;;;;;;4824512;55;21081;-42
2022/10/27 04:26:20;;;;;;;42.83;37.47;;;22.90;59.40;;;;;;4953972;55;21010;-44
2022/10/27 04:31:21;;;;;;;43.03;37.33;;;22.90;59.50;;;;;;4800235;55;21061;-37
2022/10/27 04:36:22;;;;;;;41.55;37.05;;;22.90;59.40;;;;;;4812463;55;21003;-45
2022/10/27 04:41:23;;;;;;;42.30;36.63;;;22.90;59.30;;;;;;4814256;55;21005;-42
2022/10/27 04:46:23;;;;;;;42.03;36.88;;;22.90;59.40;;;;;;4899716;55;21057;-42
2022/10/27 04:51:24;;;;;;;40.90;36.50;;;22.90;59.30;;;;;;4853078;55;21489;-44
2022/10/27 04:56:25;;;;;;;39.50;34.83;;;22.90;59.30;;;;;;4969107;55;21005;-45
2022/10/27 05:01:26;;;;;;;40.22;35.42;;;22.90;59.30;;;;;;4795289;55;21006;-44
2022/10/27 05:06:27;;;;;;;38.47;33.95;;;22.90;59.30;;;;;;4845553;55;21492;-41
2022/10/27 05:11:27;;;;;;;39.28;33.05;;;22.90;59.30;;;;;;4965148;55;21487;-40
2022/10/27 05:16:28;;;;;;;37.33;33.25;;;22.90;59.20;;;;;;5015701;55;21058;-41
2022/10/27 05:21:29;;;;;;;36.40;32.25;;;22.90;59.20;;;;;;4792025;55;21009;-40
2022/10/27 05:26:30;;;;;;;37.28;33.28;;;22.90;59.20;;;;;;4783225;55;21053;-39
2022/10/27 05:31:31;;;;;;;37.35;33.33;;;22.90;59.30;;;;;;5138153;55;20994;-41
2022/10/27 05:36:31;;;;;;;36.45;32.22;;;22.90;59.10;;;;;;4745468;55;21005;-45
2022/10/27 05:41:32;;;;;;;35.80;31.70;;;22.90;59.10;;;;;;4778970;55;21022;-41
2022/10/27 05:46:33;;;;;;;35.92;32.13;;;22.90;59.20;;;;;;4745421;59;21496;-44
2022/10/27 05:51:34;;;;;;;35.75;31.95;;;22.90;59.10;;;;;;4745056;59;21018;-41
2022/10/27 05:56:35;;;;;;;37.78;32.38;;;22.90;59.10;;;;;;4816649;55;21006;-43
2022/10/27 06:01:35;;;;;;;35.35;31.62;;;22.90;59.00;;;;;;4857463;55;21070;-44
2022/10/27 06:06:36;;;;;;;35.90;32.00;;;22.90;59.10;;;;;;4837143;55;21049;-51
2022/10/27 06:11:37;;;;;;;34.70;31.02;;;22.90;59.00;;;;;;4745127;59;21479;-45
2022/10/27 06:16:38;;;;;;;34.90;30.90;;;22.90;58.90;;;;;;4849491;55;21053;-48
2022/10/27 06:21:39;;;;;;;34.80;31.00;;;22.90;59.00;;;;;;4930532;55;21140;-41
2022/10/27 06:26:39;;;;;;;33.53;29.92;;;22.90;59.00;;;;;;5152453;55;21535;-39
2022/10/27 06:31:41;;;;;;;36.00;30.33;;;22.90;58.80;;;;;;4782584;55;21129;-44
2022/10/27 06:36:42;;;;;;;37.53;31.48;;;22.90;58.90;;;;;;4745623;59;21468;-46
2022/10/27 06:41:43;;;;;;;36.55;31.35;;;22.90;58.90;;;;;;4745943;55;21096;-44
2022/10/27 06:46:44;;;;;;;36.03;30.52;;;22.90;58.90;;;;;;5181926;55;21078;-30
2022/10/27 06:51:44;;;;;;;32.78;29.30;;;22.90;58.90;;;;;;4786105;55;21049;-41
2022/10/27 06:56:45;;;;;;;35.15;30.33;;;22.90;58.90;;;;;;4904028;55;21049;-44
2022/10/27 07:01:46;;;;;;;38.65;31.70;;;22.90;58.90;;;;;;4745147;55;21018;-41
2022/10/27 07:06:47;;;;;;;35.70;30.20;;;22.90;58.90;;;;;;4819710;55;21029;-44
2022/10/27 07:11:48;;;;;;;36.00;31.60;;;22.90;58.90;;;;;;4883399;55;21504;-35
2022/10/27 07:16:48;;;;;;;37.65;31.67;;;22.90;58.90;;;;;;4859524;55;21078;-44
2022/10/27 07:21:49;;;;;;;37.50;32.05;;;22.90;58.70;;;;;;4800011;55;21105;-34
2022/10/27 07:26:50;;;;;;;38.17;31.23;;;22.90;59.30;;;;;;4745801;55;21105;-39
2022/10/27 07:31:51;;;;;;;41.55;33.15;;;23.00;58.80;;;;;;4745370;59;21046;-41
2022/10/27 07:36:52;;;;;;;36.67;31.15;;;23.00;58.70;;;;;;5023535;55;21540;-41
2022/10/27 07:41:52;;;;;;;38.35;31.55;;;23.10;58.80;;;;;;4868567;55;21173;-35
2022/10/27 07:46:53;;;;;;;38.50;30.60;;;23.10;59.50;;;;;;4799801;55;21057;-37
2022/10/27 07:51:54;;;;;;;36.33;30.35;;;23.10;58.90;;;;;;4855271;55;21002;-39
2022/10/27 07:56:55;;;;;;;40.33;32.53;;;23.10;58.90;;;;;;4750360;55;21015;-41
2022/10/27 08:01:56;;;;;;;39.22;31.15;;;23.20;59.00;;;;;;4746888;55;21021;-41
2022/10/27 08:06:56;;;;;;;37.35;30.62;;;23.20;58.80;;;;;;4918788;55;21009;-31
2022/10/27 08:11:57;;;;;;;35.90;30.88;;;23.20;58.80;;;;;;4828898;55;21013;-41
2022/10/27 08:16:58;;;;;;;39.28;31.42;;;23.10;58.80;;;;;;4745340;59;21476;-42
2022/10/27 08:21:59;;;;;;;40.72;32.15;;;23.10;58.90;;;;;;4822525;55;21042;-32
2022/10/27 08:27:00;;;;;;;37.08;31.00;;;23.10;58.80;;;;;;4763771;55;21551;-43
2022/10/27 08:32:01;;;;;;;37.00;31.25;;;23.10;58.90;;;;;;4782929;55;21018;-30
2022/10/27 08:37:02;;;;;;;38.65;32.58;;;23.10;58.90;;;;;;4763314;55;21018;-45
2022/10/27 08:42:50;;;;;;;38.75;32.25;;;23.10;59.00;;;;;;4744757;59;21598;-40
2022/10/27 08:47:57;;;;;;;39.45;33.15;;;23.10;58.90;;;;;;4952330;55;21018;-46
2022/10/27 08:53:09;;;;;;;41.83;32.85;;;23.10;59.50;;;;;;4981482;55;21089;-43
2022/10/27 08:58:21;;;;;;;41.78;33.70;;;23.00;58.90;;;;;;4848481;55;21044;-47
2022/10/27 09:04:56;;;;;;;38.83;33.70;;;23.00;58.90;;;;;;4744575;59;21008;-45
2022/10/27 09:10:01;;;;;;;41.53;33.38;;;23.00;58.90;;;;;;4745696;55;20986;-46
2022/10/27 09:15:50;;;;;;;39.58;33.75;;;23.00;59.00;;;;;;4907607;55;21531;-35
2022/10/27 09:20:55;;;;;;;41.08;34.08;;;23.00;58.90;;;;;;4914773;55;21065;-38
2022/10/27 09:25:57;;;;;;;41.17;34.55;;;23.00;59.00;;;;;;4761406;55;21025;-48
2022/10/27 09:30:59;;;;;;;41.45;34.47;;;23.00;59.00;;;;;;4898662;55;21050;-43
2022/10/27 09:36:14;;;;;;;45.95;37.55;;;23.00;59.00;;;;;;4779621;55;21110;-48
2022/10/27 09:41:15;;;;;;;43.15;36.25;;;23.00;59.10;;;;;;4781700;55;21038;-38
2022/10/27 09:46:26;;;;;;;43.28;35.20;;;23.00;59.00;;;;;;4778986;55;21105;-34
2022/10/27 09:51:41;;;;;;;42.97;36.22;;;23.10;59.10;;;;;;4810483;55;21503;-42
2022/10/27 09:56:42;;;;;;;43.00;35.00;;;23.10;59.20;;;;;;4861133;55;21127;-29
2022/10/27 10:01:54;;;;;;;44.28;34.95;;;23.20;59.40;;;;;;4923924;55;21029;-39
2022/10/27 10:07:04;;;;;;;47.67;35.85;;;23.20;59.50;;;;;;4910252;55;21560;-38
2022/10/27 10:12:38;;;;;;;44.33;35.83;;;23.20;59.60;;;;;;4867971;55;21022;-36
2022/10/27 10:17:59;;;;;;;45.90;36.10;;;23.30;59.80;;;;;;4962917;55;20990;-29
2022/10/27 10:23:17;;;;;;;45.33;36.30;;;23.30;59.90;;;;;;4775166;55;21089;-45
2022/10/27 10:28:39;;;;;;;44.65;34.70;;;23.30;60.10;;;;;;4744992;59;21061;-46
2022/10/27 10:33:43;;;;;;;50.03;38.33;;;23.40;60.20;;;;;;4745238;59;21066;-47
2022/10/27 10:39:35;;;;;;;49.08;38.63;;;23.40;60.00;;;;;;4782306;55;21491;-46
2022/10/27 10:44:37;;;;;;;49.95;38.45;;;23.30;60.00;;;;;;4818002;55;21066;-42
2022/10/27 10:49:45;;;;;;;47.97;38.15;;;23.30;60.10;;;;;;4752351;55;21014;-38
2022/10/27 10:54:46;;;;;;;47.65;37.17;;;23.30;60.10;;;;;;4835788;55;21021;-40
2022/10/27 10:59:50;;;;;;;47.75;38.65;;;23.30;60.10;;;;;;4848903;55;21062;-43
2022/10/27 11:04:51;;;;;;;44.30;37.42;;;23.30;60.20;;;;;;4744997;59;21093;-42
2022/10/27 11:10:20;;;;;;;47.92;38.22;;;23.30;60.20;;;;;;4876511;55;20994;-48
2022/10/27 11:16:08;;;;;;;44.65;37.92;;;23.20;60.10;;;;;;4764338;55;21498;-38
2022/10/27 11:22:39;;;;;;;42.85;36.78;;;23.20;60.20;;;;;;4846955;55;21026;-47
2022/10/27 11:28:16;;;;;;;45.70;37.53;;;23.30;60.20;;;;;;4782537;55;20990;-45
2022/10/27 11:33:52;;;;;;;47.62;37.75;;;23.20;60.90;;;;;;4811805;55;20998;-44
2022/10/27 11:39:09;;;;;;;43.27;36.90;;;23.20;60.20;;;;;;4796893;55;21115;-42
2022/10/27 11:44:51;;;;;;;;;;;23.20;60.30;;;;;;4815271;55;21058;-43
2022/10/27 11:53:02;;;;;;;41.75;36.72;;;23.20;60.30;;;;;;4989782;55;20060;-42
2022/10/27 12:01:46;;;;;;;43.80;36.28;;;23.20;60.30;;;;;;4825384;55;21033;-42
2022/10/27 12:07:20;;;;;;;45.88;37.53;;;23.20;60.30;;;;;;4765085;55;21073;-43
2022/10/27 12:12:45;;;;;;;47.15;36.45;;;23.20;60.40;;;;;;4755028;55;21112;-43
2022/10/27 12:18:03;;;;;;;42.13;34.80;;;23.30;60.80;;;;;;4935506;55;21002;-47
2022/10/27 12:23:13;;;;;;;43.60;36.72;;;23.30;60.80;;;;;;4860727;55;21101;-38
2022/10/27 12:28:15;;;;;;;42.95;35.20;;;23.40;61.10;;;;;;5123103;55;21077;-42
2022/10/27 12:33:29;;;;;;;41.60;34.80;;;23.40;61.30;;;;;;4753345;55;20986;-38
2022/10/27 12:39:56;;;;;;;46.65;35.58;;;23.50;61.40;;;;;;4745760;59;21067;-38
2022/10/27 12:45:29;;;;;;;43.87;36.22;;;23.50;61.60;;;;;;4786835;55;21021;-38
2022/10/27 12:50:53;;;;;;;42.95;35.20;;;23.50;61.70;;;;;;4793683;55;21125;-45
2022/10/27 13:00:53;;;;;;;43.17;34.15;;;23.50;61.70;;;;;;4776452;55;21002;-41
2022/10/27 13:10:04;;;;;;;42.58;35.28;;;23.50;61.70;;;;;;4793827;55;21062;-40
2022/10/27 13:15:38;;;;;;;40.95;34.25;;;23.60;61.80;;;;;;4806917;55;21058;-45
2022/10/27 13:24:29;;;;;;;42.80;36.42;;;23.60;62.00;;;;;;4856008;55;21014;-38
2022/10/27 13:29:38;;;;;;;41.95;34.92;;;23.60;62.00;;;;;;5096676;55;21058;-42
2022/10/27 13:34:39;;;;;;;40.40;34.70;;;23.70;62.10;;;;;;4761120;55;21464;-40
2022/10/27 13:39:45;;;;;;;44.20;34.45;;;23.70;62.30;;;;;;4813877;55;21018;-47
2022/10/27 13:44:46;;;;;;;42.00;34.53;;;23.70;62.40;;;;;;4775350;55;21053;-38
2022/10/27 13:49:54;;;;;;;41.70;35.30;;;23.60;62.30;;;;;;4786285;55;21480;-43
2022/10/27 13:54:58;;;;;;;43.50;35.90;;;23.60;62.90;;;;;;4744639;59;21507;-47
2022/10/27 14:00:09;;;;;;;41.22;34.33;;;23.50;62.30;;;;;;4930139;55;21094;-45
2022/10/27 14:05:24;;;;;;;42.55;34.92;;;23.50;62.20;;;;;;4741226;59;21069;-47
2022/10/27 14:10:27;;;;;;;42.13;35.00;;;23.50;62.20;;;;;;4742340;59;21078;-37
2022/10/27 14:15:33;;;;;;;41.67;34.33;;;23.50;62.10;;;;;;4768530;55;21053;-44
2022/10/27 14:20:39;;;;;;;40.17;33.67;;;23.50;62.10;;;;;;4755679;55;21034;-41
2022/10/27 14:25:40;;;;;;;42.30;35.33;;;23.60;62.10;;;;;;4769823;55;21586;-46
2022/10/27 14:30:43;;;;;;;36.88;32.78;;;23.50;62.10;;;;;;5111337;55;21084;-41
2022/10/27 14:35:44;;;;;;;42.00;34.33;;;23.40;62.00;;;;;;4871200;55;21149;-48
2022/10/27 14:40:46;;;;;;;42.88;33.67;;;23.40;62.00;;;;;;4745007;59;21017;-43
2022/10/27 14:45:59;;;;;;;43.17;35.00;;;23.50;62.00;;;;;;4952376;55;21109;-48
2022/10/27 14:51:02;;;;;;;38.33;33.67;;;23.40;62.00;;;;;;4863893;55;21054;-44
2022/10/27 14:56:36;;;;;;;39.05;34.08;;;23.40;62.00;;;;;;5086040;55;21038;-42
2022/10/27 15:01:39;;;;;;;38.90;33.03;;;23.40;61.90;;;;;;4743976;59;21070;-42
2022/10/27 15:06:44;;;;;;;39.85;32.15;;;23.40;61.90;;;;;;4745068;59;21058;-41
2022/10/27 15:11:46;;;;;;;37.85;31.67;;;23.40;61.90;;;;;;4799444;55;21496;-37
2022/10/27 15:16:46;;;;;;;39.83;33.53;;;23.40;61.80;;;;;;4755994;55;21038;-46
2022/10/27 15:21:48;;;;;;;39.42;33.15;;;23.40;61.80;;;;;;4752188;55;21037;-47
2022/10/27 15:26:51;;;;;;;37.55;31.60;;;23.40;61.80;;;;;;4792435;55;21159;-46
2022/10/27 15:31:58;;;;;;;37.50;31.98;;;23.40;61.70;;;;;;4892905;55;21045;-44
2022/10/27 15:37:29;;;;;;;39.60;32.38;;;23.30;61.70;;;;;;4745327;59;20982;-53
2022/10/27 15:42:36;;;;;;;35.15;31.15;;;23.40;61.80;;;;;;4766092;55;21065;-43
2022/10/27 15:47:46;;;;;;;35.22;30.98;;;23.40;61.70;;;;;;4798761;55;21045;-45
2022/10/27 15:52:47;;;;;;;36.38;30.83;;;23.30;61.70;;;;;;4852609;55;21057;-45
2022/10/27 15:57:48;;;;;;;38.30;32.08;;;23.30;61.70;;;;;;4911520;55;21472;-42
2022/10/27 16:02:57;;;;;;;35.83;30.62;;;23.40;61.70;;;;;;4949847;55;21085;-40
2022/10/27 16:09:49;;;;;;;36.33;31.33;;;23.30;61.70;;;;;;4745297;59;21535;-45
2022/10/27 16:14:58;;;;;;;35.53;30.48;;;23.30;61.60;;;;;;4782266;55;21008;-45
2022/10/27 16:20:06;;;;;;;35.47;30.75;;;23.30;61.60;;;;;;4749301;55;20970;-41
2022/10/27 16:25:11;;;;;;;35.95;30.95;;;23.30;61.50;;;;;;4808208;55;21030;-49
2022/10/27 16:30:17;;;;;;;37.97;31.73;;;23.30;61.50;;;;;;4800396;55;21002;-49
2022/10/27 16:35:18;;;;;;;34.78;30.95;;;23.30;61.50;;;;;;4745721;59;21057;-49
2022/10/27 16:40:19;;;;;;;37.85;31.00;;;23.30;61.50;;;;;;4767226;55;21046;-40
2022/10/27 16:45:20;;;;;;;36.15;30.95;;;23.30;61.40;;;;;;4847484;55;21483;-46
2022/10/27 16:50:21;;;;;;;36.22;30.42;;;23.30;61.40;;;;;;4745013;59;21018;-46
2022/10/27 16:55:23;;;;;;;35.72;31.20;;;23.30;61.40;;;;;;4744949;59;21488;-45
2022/10/27 17:00:23;;;;;;;36.33;30.45;;;23.30;61.40;;;;;;4744568;59;21125;-44
2022/10/27 17:05:24;;;;;;;39.83;32.35;;;23.30;61.40;;;;;;4823409;55;21038;-48
2022/10/27 17:10:25;;;;;;;36.35;31.25;;;23.30;61.40;;;;;;4823431;55;20994;-44
2022/10/27 17:15:26;;;;;;;37.78;31.98;;;23.30;61.40;;;;;;4745008;59;21062;-40
2022/10/27 17:20:27;;;;;;;40.97;32.53;;;23.30;61.40;;;;;;4744777;59;21021;-46
2022/10/27 17:25:28;;;;;;;35.92;32.03;;;23.30;61.30;;;;;;4803179;55;21153;-42
2022/10/27 17:30:29;;;;;;;40.50;33.60;;;23.30;61.30;;;;;;4783678;55;21009;-48
2022/10/27 17:35:30;;;;;;;41.95;33.15;;;23.30;61.30;;;;;;4755597;55;21006;-41
2022/10/27 17:40:31;;;;;;;38.85;33.80;;;23.30;61.20;;;;;;4878091;55;21089;-44
2022/10/27 17:45:31;;;;;;;41.05;34.35;;;23.30;61.20;;;;;;4744793;59;21527;-44
2022/10/27 17:50:32;;;;;;;40.53;34.15;;;23.30;61.20;;;;;;4744933;55;21170;-40
2022/10/27 17:55:33;;;;;;;41.15;33.60;;;23.20;61.10;;;;;;4873442;55;21070;-41
2022/10/27 18:00:40;;;;;;;38.50;33.13;;;23.30;61.20;;;;;;4783082;55;21065;-37
2022/10/27 18:05:41;;;;;;;41.20;34.70;;;23.30;61.10;;;;;;4849591;55;21070;-43
2022/10/27 18:10:42;;;;;;;43.87;35.63;;;23.30;61.20;;;;;;5151626;55;21082;-44
2022/10/27 18:15:42;;;;;;;42.92;35.38;;;23.20;61.10;;;;;;4891449;55;21830;-44
2022/10/27 18:20:43;;;;;;;39.88;33.45;;;23.30;61.70;;;;;;4824878;55;21034;-37
2022/10/27 18:25:44;;;;;;;43.35;34.97;;;23.30;61.10;;;;;;4795108;55;21105;-45
2022/10/27 18:30:45;;;;;;;40.47;34.03;;;23.20;61.00;;;;;;4756618;55;21009;-48
2022/10/27 18:35:46;;;;;;;40.17;33.90;;;23.20;61.00;;;;;;4951180;55;21010;-47
2022/10/27 18:40:47;;;;;;;41.20;34.10;;;23.20;60.90;;;;;;4900598;55;21112;-49
2022/10/27 18:45:47;;;;;;;43.22;35.80;;;23.20;60.90;;;;;;4899750;55;21009;-45
2022/10/27 18:51:02;;;;;;;43.95;36.03;;;23.20;60.90;;;;;;4817439;55;21594;-41
2022/10/27 18:56:06;;;;;;;40.35;34.78;;;23.20;60.80;;;;;;4760428;55;20997;-47
2022/10/27 19:01:11;;;;;;;45.33;36.63;;;23.20;60.90;;;;;;4845766;55;21110;-41
2022/10/27 19:06:12;;;;;;;42.70;35.47;;;23.20;61.10;;;;;;4745136;59;21034;-44
2022/10/27 19:11:15;;;;;;;42.40;35.55;;;23.20;60.80;;;;;;4954425;55;21061;-43
2022/10/27 19:16:18;;;;;;;44.13;36.42;;;23.20;60.70;;;;;;4805600;55;20978;-42
2022/10/27 19:21:19;;;;;;;43.05;35.53;;;23.20;61.30;;;;;;4994167;55;21038;-42
2022/10/27 19:26:23;;;;;;;44.83;34.90;;;23.20;60.60;;;;;;4847153;55;21072;-47
2022/10/27 19:31:28;;;;;;;43.33;35.80;;;23.20;60.60;;;;;;4824260;55;20998;-50
2022/10/27 19:36:32;;;;;;;45.67;36.10;;;23.20;60.60;;;;;;4757293;55;20994;-43
2022/10/27 19:41:37;;;;;;;45.03;36.58;;;23.20;60.50;;;;;;4745147;59;21017;-40
2022/10/27 19:46:38;;;;;;;43.75;36.70;;;23.20;60.50;;;;;;4784196;55;21089;-45
2022/10/27 19:51:39;;;;;;;47.55;37.83;;;23.20;60.50;;;;;;4849577;55;21474;-50
2022/10/27 19:56:47;;;;;;;43.70;37.17;;;23.20;60.40;;;;;;4745308;59;21459;-46
2022/10/27 20:01:51;;;;;;;45.58;37.28;;;23.20;60.40;;;;;;4931506;55;21558;-45
2022/10/27 20:06:51;;;;;;;47.47;37.05;;;23.20;60.30;;;;;;4875682;55;21068;-45
2022/10/27 20:11:52;;;;;;;45.55;36.55;;;23.20;60.50;;;;;;4745442;55;20999;-44
2022/10/27 20:16:53;;;;;;;46.17;36.85;;;23.20;60.30;;;;;;4745214;55;21025;-42
2022/10/27 20:21:54;;;;;;;46.00;36.30;;;23.20;60.20;;;;;;4789856;55;21142;-42
2022/10/27 20:26:55;;;;;;;45.15;35.63;;;23.10;60.10;;;;;;4918849;55;21539;-45
2022/10/27 20:31:56;;;;;;;47.83;35.95;;;23.20;60.20;;;;;;5004117;55;21077;-44
2022/10/27 20:36:57;;;;;;;47.13;36.92;;;23.20;60.80;;;;;;4745317;59;21061;-42
2022/10/27 20:41:58;;;;;;;45.33;36.53;;;23.20;60.00;;;;;;4766074;55;21495;-43
2022/10/27 20:46:59;;;;;;;46.92;36.88;;;23.20;60.00;;;;;;4745506;59;21049;-45
2022/10/27 20:51:59;;;;;;;43.87;34.88;;;23.20;59.90;;;;;;4844110;55;21104;-46
2022/10/27 20:57:00;;;;;;;46.33;36.08;;;23.20;60.00;;;;;;4945357;55;21109;-36
2022/10/27 21:02:01;;;;;;;44.65;35.92;;;23.10;59.70;;;;;;4877399;55;21081;-44
2022/10/27 21:07:02;;;;;;;46.45;37.05;;;23.10;59.80;;;;;;4745441;59;20966;-43
2022/10/27 21:12:03;;;;;;;46.88;36.22;;;23.10;59.70;;;;;;4778645;55;21566;-38
2022/10/27 21:17:03;;;;;;;46.47;36.65;;;23.10;59.60;;;;;;4802837;55;21045;-40
2022/10/27 21:22:04;;;;;;;46.65;37.40;;;23.10;59.50;;;;;;4744953;59;21147;-30
2022/10/27 21:27:05;;;;;;;46.42;35.05;;;23.10;59.50;;;;;;4745787;59;20985;-33
2022/10/27 21:32:06;;;;;;;45.08;36.40;;;23.10;59.40;;;;;;4772883;55;21066;-38
2022/10/27 21:37:07;;;;;;;45.38;35.95;;;23.10;59.40;;;;;;4791884;55;20997;-37
2022/10/27 21:42:07;;;;;;;45.28;35.67;;;23.10;59.40;;;;;;4948101;55;21081;-44
2022/10/27 21:47:08;;;;;;;45.67;35.83;;;23.10;59.40;;;;;;5028197;55;21157;-44
2022/10/27 21:52:09;;;;;;;45.28;36.03;;;23.10;59.30;;;;;;4781758;55;21491;-44
2022/10/27 21:57:10;;;;;;;46.53;36.15;;;23.10;59.20;;;;;;4895908;55;21594;-46
2022/10/27 22:02:10;;;;;;;43.38;35.08;;;23.10;59.30;;;;;;4744368;59;21029;-45
2022/10/27 22:07:11;;;;;;;43.47;33.60;;;23.10;59.20;;;;;;4745352;59;21119;-45
2022/10/27 22:12:12;;;;;;;43.80;34.05;;;23.10;59.20;;;;;;4927266;55;21002;-43
2022/10/27 22:17:13;;;;;;;46.75;34.08;;;23.10;59.20;;;;;;5052968;55;21073;-40
2022/10/27 22:22:38;;;;;;;42.85;33.55;;;23.10;59.10;;;;;;4766093;55;21627;-46
2022/10/27 22:27:38;;;;;;;42.22;32.90;;;23.10;59.10;;;;;;4769680;55;20994;-39
2022/10/27 22:32:39;;;;;;;42.05;33.20;;;23.10;59.10;;;;;;4897054;55;21006;-44
2022/10/27 22:37:40;;;;;;;44.10;33.35;;;23.10;59.10;;;;;;4808242;55;21062;-42
2022/10/27 22:42:41;;;;;;;41.53;33.42;;;23.10;58.90;;;;;;4877489;55;21132;-45
2022/10/27 22:47:41;;;;;;;40.17;32.75;;;23.00;58.90;;;;;;4957878;55;21098;-42
2022/10/27 22:52:42;;;;;;;41.63;32.88;;;23.10;58.90;;;;;;4745262;59;21488;-40
2022/10/27 22:57:43;;;;;;;40.60;32.47;;;23.00;58.80;;;;;;5061639;55;21061;-42
2022/10/27 23:02:44;;;;;;;41.85;32.40;;;23.00;58.80;;;;;;4744520;59;21026;-45
2022/10/27 23:07:44;;;;;;;40.50;31.65;;;23.00;58.70;;;;;;4745602;55;21001;-46
2022/10/27 23:12:45;;;;;;;39.25;31.50;;;23.00;58.60;;;;;;4744984;59;21460;-44
2022/10/27 23:17:46;;;;;;;40.75;32.50;;;23.00;58.60;;;;;;4820605;55;21509;-41
2022/10/27 23:22:47;;;;;;;38.63;31.65;;;23.00;58.60;;;;;;4744121;59;21499;-48
2022/10/27 23:27:48;;;;;;;42.33;31.67;;;23.00;58.50;;;;;;4836357;55;21467;-43
2022/10/27 23:32:49;;;;;;;37.25;31.08;;;23.00;58.50;;;;;;4994301;55;21077;-42
2022/10/27 23:37:50;;;;;;;37.45;29.75;;;23.00;58.40;;;;;;4745235;55;21065;-36
2022/10/27 23:42:51;;;;;;;33.83;29.12;;;23.00;58.40;;;;;;4812261;55;21050;-42
2022/10/27 23:47:53;;;;;;;35.95;29.45;;;23.00;58.90;;;;;;4745293;59;20994;-44
2022/10/27 23:52:53;;;;;;;37.85;29.02;;;23.00;58.30;;;;;;4745016;59;21022;-44
2022/10/27 23:57:54;;;;;;;39.50;30.20;;;23.00;58.20;;;;;;4755431;55;20997;-52
